Time;durP1;ratioP1;P1;durP2;ratioP2;P2;SDS_P1;SDS_P2;PMS_P1;PMS_P2;Temp;Humidity;BMP_temperature;BMP_pressure;BME280_temperature;BME280_humidity;BME280_pressure;Samples;Min_cycle;Max_cycle;Signal;HPM_P1;HPM_P2
2022/08/23 00:03:26;;;;;;;4.00;2.50;;;24.30;71.10;;;;;;221613;1262;22524;-51
2022/08/23 00:08:29;;;;;;;4.30;2.50;;;24.20;70.90;;;;;;221423;1262;22710;-50
2022/08/23 00:13:32;;;;;;;7.10;2.50;;;24.30;71.60;;;;;;221377;1262;23905;-50
2022/08/23 00:18:49;;;;;;;7.20;2.70;;;24.30;71.60;;;;;;221045;1262;26514;-50
2022/08/23 00:23:55;;;;;;;7.20;2.80;;;24.30;71.30;;;;;;221706;1262;22566;-50
2022/08/23 00:28:57;;;;;;;6.00;2.70;;;24.30;71.30;;;;;;221572;1262;22553;-50
2022/08/23 00:34:00;;;;;;;6.30;2.90;;;24.20;71.30;;;;;;221182;1262;23434;-50
2022/08/23 00:39:04;;;;;;;8.90;2.90;;;24.20;70.80;;;;;;221259;1262;24449;-49
2022/08/23 00:49:39;;;;;;;6.90;2.50;;;24.30;71.60;;;;;;221227;1262;22554;-50
2022/08/23 00:54:44;;;;;;;4.30;2.20;;;24.20;71.00;;;;;;221372;1262;22811;-51
2022/08/23 00:59:47;;;;;;;4.50;2.60;;;24.30;71.30;;;;;;220887;1265;24224;-51
2022/08/23 01:04:54;;;;;;;6.90;2.10;;;24.20;71.10;;;;;;221089;1265;23016;-50
2022/08/23 01:10:01;;;;;;;5.40;2.40;;;24.30;71.10;;;;;;221346;1265;22699;-54
2022/08/23 01:15:16;;;;;;;4.70;2.50;;;24.30;71.10;;;;;;221049;1262;22566;-50
2022/08/23 01:20:23;;;;;;;4.40;2.50;;;24.30;71.20;;;;;;221239;1262;24336;-49
2022/08/23 01:25:31;;;;;;;5.30;2.70;;;24.20;71.50;;;;;;220892;1264;22642;-49
2022/08/23 01:30:35;;;;;;;7.10;2.70;;;24.30;71.20;;;;;;221180;1262;22541;-51
2022/08/23 01:35:42;;;;;;;5.40;2.70;;;24.20;70.80;;;;;;220949;1265;22538;-50
2022/08/23 01:40:45;;;;;;;4.10;2.60;;;24.30;70.60;;;;;;221010;1265;22528;-51
2022/08/23 01:45:49;;;;;;;5.70;2.40;;;24.30;71.10;;;;;;221085;1265;22543;-52
2022/08/23 01:50:52;;;;;;;5.10;2.40;;;24.30;71.10;;;;;;221214;1265;22598;-50
2022/08/23 01:55:54;;;;;;;5.10;2.40;;;24.20;70.90;;;;;;220919;1265;25358;-51
2022/08/23 02:00:57;;;;;;;4.90;2.60;;;24.20;71.30;;;;;;220998;1262;22547;-52
2022/08/23 02:06:00;;;;;;;5.40;2.20;;;24.20;70.80;;;;;;221072;1262;25302;-49
2022/08/23 02:11:14;;;;;;;4.60;2.20;;;24.20;71.00;;;;;;221479;1262;25312;-50
2022/08/23 02:16:32;;;;;;;5.00;2.30;;;24.20;70.80;;;;;;221319;1262;25413;-51
2022/08/23 02:21:36;;;;;;;4.60;2.30;;;24.30;70.30;;;;;;221192;1262;24050;-49
2022/08/23 02:26:42;;;;;;;5.90;2.10;;;24.30;71.60;;;;;;221422;1262;22797;-48
2022/08/23 02:31:48;;;;;;;4.00;2.20;;;24.30;70.90;;;;;;221730;1262;24208;-48
2022/08/23 02:36:51;;;;;;;3.50;2.00;;;24.30;70.80;;;;;;221416;1262;25402;-48
2022/08/23 02:41:54;;;;;;;3.40;1.90;;;24.30;70.90;;;;;;221283;1262;24038;-50
2022/08/23 02:46:56;;;;;;;3.70;2.30;;;24.20;70.80;;;;;;221041;1262;24408;-50
2022/08/23 02:51:58;;;;;;;4.00;2.30;;;24.30;70.60;;;;;;220832;1265;22534;-51
2022/08/23 02:57:01;;;;;;;5.50;2.40;;;24.20;70.50;;;;;;221240;1262;24144;-50
2022/08/23 03:02:04;;;;;;;4.50;2.00;;;24.20;70.80;;;;;;221040;1262;22560;-52
2022/08/23 03:07:10;;;;;;;4.70;2.40;;;24.20;70.40;;;;;;220897;1265;22725;-54
2022/08/23 03:12:13;;;;;;;3.60;2.00;;;24.20;71.00;;;;;;221526;1262;22546;-51
2022/08/23 03:17:19;;;;;;;3.20;2.00;;;24.20;70.30;;;;;;221013;1262;24411;-52
2022/08/23 03:22:22;;;;;;;5.20;2.00;;;24.20;70.10;;;;;;221319;1262;25306;-52
2022/08/23 03:27:25;;;;;;;4.80;2.40;;;24.20;70.10;;;;;;221645;1262;22561;-49
2022/08/23 03:32:27;;;;;;;3.20;1.80;;;24.20;70.30;;;;;;221474;1261;23966;-50
2022/08/23 03:37:30;;;;;;;6.30;2.00;;;24.20;70.00;;;;;;221518;1262;25256;-50
2022/08/23 03:42:33;;;;;;;5.30;2.20;;;24.20;70.10;;;;;;221427;1262;25158;-50
2022/08/23 03:47:37;;;;;;;4.50;2.50;;;24.20;70.10;;;;;;221461;1262;22556;-48
2022/08/23 03:52:39;;;;;;;4.30;2.10;;;24.20;70.10;;;;;;221092;1262;24371;-50
2022/08/23 03:57:42;;;;;;;4.30;1.80;;;24.20;70.10;;;;;;221241;1262;22835;-50
2022/08/23 04:02:46;;;;;;;6.90;2.40;;;24.10;70.50;;;;;;221151;1262;24219;-50
2022/08/23 04:07:50;;;;;;;3.70;1.80;;;24.20;70.10;;;;;;221221;1262;23977;-50
2022/08/23 04:12:54;;;;;;;3.20;2.00;;;24.10;70.10;;;;;;221388;1262;24245;-50
2022/08/23 04:17:58;;;;;;;6.10;2.20;;;24.10;70.70;;;;;;220915;1265;22553;-49
2022/08/23 04:23:01;;;;;;;3.70;2.00;;;24.10;70.20;;;;;;221206;1262;24270;-50
2022/08/23 04:28:07;;;;;;;2.40;1.90;;;24.10;70.10;;;;;;220996;1262;25246;-50
2022/08/23 04:33:10;;;;;;;3.30;1.90;;;24.10;70.00;;;;;;221065;1262;24286;-52
2022/08/23 04:38:19;;;;;;;3.50;2.00;;;24.10;70.20;;;;;;221190;1262;22557;-51
2022/08/23 04:43:29;;;;;;;3.60;1.70;;;24.10;70.10;;;;;;221562;1262;24288;-51
2022/08/23 04:48:32;;;;;;;3.20;1.90;;;24.10;70.10;;;;;;220882;1265;25654;-51
2022/08/23 04:53:34;;;;;;;4.20;1.80;;;24.10;70.40;;;;;;219857;1262;2267334;-52
2022/08/23 04:59:07;;;;;;;2.40;1.70;;;24.10;70.20;;;;;;221063;1262;25367;-49
2022/08/23 05:04:16;;;;;;;3.30;1.80;;;24.10;70.30;;;;;;221330;1265;22577;-55
2022/08/23 05:09:19;;;;;;;4.50;1.90;;;24.10;70.10;;;;;;221109;1265;24456;-50
2022/08/23 05:14:23;;;;;;;4.20;1.80;;;24.10;70.00;;;;;;221110;1262;22534;-52
2022/08/23 05:19:26;;;;;;;2.70;1.90;;;24.10;70.30;;;;;;221289;1262;24215;-52
2022/08/23 05:24:28;;;;;;;6.20;2.10;;;24.10;70.20;;;;;;221281;1262;22591;-51
2022/08/23 05:29:31;;;;;;;4.60;1.80;;;24.10;70.00;;;;;;221368;1262;22704;-52
2022/08/23 05:34:34;;;;;;;2.80;1.60;;;24.10;70.40;;;;;;221278;1262;22529;-52
2022/08/23 05:39:43;;;;;;;4.80;1.90;;;24.10;70.50;;;;;;221548;1262;26474;-51
2022/08/23 05:44:45;;;;;;;3.20;1.50;;;24.10;69.90;;;;;;221552;1262;24369;-51
2022/08/23 05:49:48;;;;;;;3.90;1.90;;;24.10;70.40;;;;;;220919;1262;23837;-51
2022/08/23 05:54:50;;;;;;;3.20;2.00;;;24.10;70.50;;;;;;220995;1262;24300;-54
2022/08/23 06:00:14;;;;;;;4.00;1.80;;;24.10;70.50;;;;;;220957;1265;22536;-53
2022/08/23 06:05:24;;;;;;;2.40;1.60;;;24.10;70.30;;;;;;220839;1262;24224;-50
2022/08/23 06:10:27;;;;;;;3.30;1.80;;;24.10;70.60;;;;;;221070;1262;25477;-49
2022/08/23 06:15:43;;;;;;;3.20;1.60;;;24.10;70.00;;;;;;221070;1262;22621;-51
2022/08/23 06:20:46;;;;;;;6.60;2.10;;;24.10;70.10;;;;;;221473;1262;22554;-53
2022/08/23 06:25:55;;;;;;;6.70;2.10;;;24.10;70.90;;;;;;221522;1262;24277;-52
2022/08/23 06:30:58;;;;;;;3.80;2.10;;;24.10;70.60;;;;;;221167;1262;23918;-52
2022/08/23 06:36:10;;;;;;;3.90;1.80;;;24.20;70.90;;;;;;221427;1262;23691;-49
2022/08/23 06:41:33;;;;;;;4.10;1.90;;;24.20;71.30;;;;;;220719;1265;22761;-49
2022/08/23 06:46:56;;;;;;;3.20;1.70;;;24.20;70.70;;;;;;220876;1265;25323;-53
2022/08/23 06:52:03;;;;;;;6.50;2.10;;;24.20;70.80;;;;;;221048;1265;25232;-49
2022/08/23 06:57:24;;;;;;;2.90;1.60;;;24.20;70.90;;;;;;221375;1262;24389;-50
2022/08/23 07:02:45;;;;;;;6.00;2.00;;;24.20;70.70;;;;;;221235;1262;25241;-50
2022/08/23 07:08:10;;;;;;;5.60;2.00;;;24.20;71.30;;;;;;220982;1265;22522;-52
2022/08/23 07:13:13;;;;;;;7.30;2.40;;;24.20;71.10;;;;;;221170;1262;23458;-53
2022/08/23 07:18:24;;;;;;;7.30;2.40;;;24.30;71.20;;;;;;223103;1262;23908;-47
2022/08/23 07:23:32;;;;;;;8.60;2.30;;;24.30;71.00;;;;;;221244;1262;26519;-51
2022/08/23 07:28:37;;;;;;;8.90;1.90;;;24.30;70.80;;;;;;221419;1262;24274;-52
2022/08/23 07:33:40;;;;;;;5.80;1.80;;;24.30;70.80;;;;;;221443;1261;25250;-50
2022/08/23 07:38:49;;;;;;;7.40;2.00;;;24.20;71.20;;;;;;221493;1262;25757;-51
2022/08/23 07:43:57;;;;;;;13.30;2.50;;;24.30;71.30;;;;;;221275;1262;22687;-49
2022/08/23 07:49:02;;;;;;;12.90;2.30;;;24.30;71.30;;;;;;221438;1262;23049;-48
2022/08/23 07:54:15;;;;;;;5.70;2.10;;;24.30;71.20;;;;;;221523;1262;22567;-50
2022/08/23 07:59:24;;;;;;;10.80;2.80;;;24.30;71.30;;;;;;221463;1262;26496;-50
2022/08/23 08:04:47;;;;;;;9.50;2.20;;;24.30;70.90;;;;;;221229;1262;22571;-50
2022/08/23 08:09:51;;;;;;;9.50;2.40;;;24.30;71.30;;;;;;221502;1263;24250;-51
2022/08/23 08:14:59;;;;;;;11.60;2.60;;;24.30;71.00;;;;;;221349;1262;22590;-50
2022/08/23 08:20:10;;;;;;;10.80;2.70;;;24.30;71.30;;;;;;221069;1265;22615;-49
2022/08/23 08:25:13;;;;;;;10.10;2.60;;;24.30;71.60;;;;;;221474;1262;25338;-51
2022/08/23 08:30:16;;;;;;;11.80;2.30;;;24.30;71.40;;;;;;221141;1262;25438;-51
2022/08/23 08:35:24;;;;;;;13.10;2.40;;;24.40;72.10;;;;;;221337;1261;25238;-51
2022/08/23 08:40:33;;;;;;;6.80;1.90;;;24.40;71.30;;;;;;221349;1262;22553;-49
2022/08/23 08:45:58;;;;;;;10.70;2.00;;;24.50;71.40;;;;;;221003;1261;24243;-48
2022/08/23 08:51:44;;;;;;;11.10;2.30;;;24.50;71.10;;;;;;221254;1262;22537;-52
2022/08/23 08:56:56;;;;;;;4.60;1.90;;;24.50;71.20;;;;;;221483;1261;22543;-47
2022/08/23 09:02:16;;;;;;;8.70;2.60;;;24.50;71.30;;;;;;221743;1262;25356;-51
2022/08/23 09:07:57;;;;;;;14.00;3.00;;;24.50;71.70;;;;;;221366;1262;22536;-50
2022/08/23 09:13:31;;;;;;;15.60;3.50;;;24.50;70.90;;;;;;221291;1265;24776;-49
2022/08/23 09:18:37;;;;;;;12.10;3.30;;;24.60;71.30;;;;;;221070;1262;22537;-48
2022/08/23 09:23:48;;;;;;;13.20;3.40;;;24.50;71.00;;;;;;221456;1262;25265;-49
2022/08/23 09:29:24;;;;;;;15.60;4.40;;;24.60;71.00;;;;;;221355;1262;22616;-49
2022/08/23 09:34:41;;;;;;;14.00;4.20;;;24.60;71.00;;;;;;221399;1262;24514;-50
2022/08/23 09:40:24;;;;;;;9.80;3.40;;;24.60;70.90;;;;;;221339;1265;22970;-50
2022/08/23 09:46:06;;;;;;;13.40;4.00;;;24.60;71.20;;;;;;221407;1262;24251;-49
2022/08/23 09:51:17;;;;;;;17.20;4.10;;;24.60;71.40;;;;;;221407;1262;25613;-48
2022/08/23 09:56:38;;;;;;;9.30;3.50;;;24.70;71.60;;;;;;221567;1262;22655;-51
2022/08/23 10:01:48;;;;;;;10.60;3.30;;;24.70;71.00;;;;;;221451;1261;22570;-47
2022/08/23 10:06:51;;;;;;;8.50;4.00;;;24.70;71.50;;;;;;221245;1262;22711;-52
2022/08/23 10:12:00;;;;;;;10.10;3.60;;;24.70;71.00;;;;;;221343;1262;24227;-52
2022/08/23 10:17:37;;;;;;;9.50;3.50;;;24.70;71.00;;;;;;221187;1262;25416;-52
2022/08/23 10:23:08;;;;;;;11.40;4.00;;;24.70;71.00;;;;;;221154;1262;22531;-47
2022/08/23 10:34:14;;;;;;;11.10;3.70;;;24.80;73.00;;;;;;221265;1265;24275;-51
2022/08/23 10:39:25;;;;;;;10.60;4.00;;;24.80;72.70;;;;;;221201;1262;23935;-49
2022/08/23 10:44:48;;;;;;;8.50;3.80;;;24.80;73.20;;;;;;221309;1265;25237;-51
2022/08/23 10:49:52;;;;;;;13.70;4.00;;;24.90;72.70;;;;;;221697;1262;22561;-50
2022/08/23 10:54:58;;;;;;;18.30;3.70;;;24.90;72.40;;;;;;221564;1262;22534;-49
2022/08/23 11:00:08;;;;;;;13.70;4.70;;;24.90;72.60;;;;;;221173;1265;23177;-46
2022/08/23 11:05:29;;;;;;;17.70;4.20;;;24.90;72.40;;;;;;221022;1265;25312;-48
2022/08/23 11:10:38;;;;;;;11.30;4.20;;;24.90;72.20;;;;;;221184;1265;24336;-55
2022/08/23 11:15:45;;;;;;;7.70;3.40;;;24.90;72.60;;;;;;221254;1265;25307;-50
2022/08/23 11:20:49;;;;;;;20.10;4.90;;;24.90;72.20;;;;;;221226;1265;22549;-46
2022/08/23 11:25:56;;;;;;;19.40;3.50;;;24.90;71.90;;;;;;221478;1265;22556;-47
2022/08/23 11:31:17;;;;;;;14.50;3.70;;;24.90;71.90;;;;;;221269;1265;24769;-51
2022/08/23 11:36:24;;;;;;;27.50;4.80;;;24.90;71.80;;;;;;221076;1265;22568;-48
2022/08/23 11:41:29;;;;;;;38.90;5.20;;;24.80;71.70;;;;;;220887;1265;22678;-46
2022/08/23 11:46:50;;;;;;;29.90;5.80;;;24.80;71.60;;;;;;221327;1265;25309;-49
2022/08/23 11:52:31;;;;;;;21.00;4.20;;;24.90;72.30;;;;;;220915;1265;22532;-47
2022/08/23 11:58:03;;;;;;;27.70;4.80;;;24.90;71.90;;;;;;221137;1264;24131;-47
2022/08/23 12:03:34;;;;;;;12.90;3.90;;;24.80;71.60;;;;;;221214;1265;22522;-51
2022/08/23 12:08:37;;;;;;;32.90;4.80;;;24.90;71.50;;;;;;221142;1265;22557;-50
2022/08/23 12:14:19;;;;;;;38.40;5.60;;;24.90;71.50;;;;;;221100;1265;22568;-50
2022/08/23 12:19:47;;;;;;;29.60;4.60;;;24.90;71.70;;;;;;221177;1265;22531;-51
2022/08/23 12:24:58;;;;;;;34.90;5.30;;;24.90;71.40;;;;;;221579;1261;26017;-51
2022/08/23 12:30:19;;;;;;;30.00;5.90;;;24.90;71.50;;;;;;221239;1261;22554;-50
2022/08/23 12:35:35;;;;;;;23.00;4.20;;;24.90;71.20;;;;;;221589;1261;22713;-50
2022/08/23 12:40:52;;;;;;;18.60;3.90;;;24.90;71.30;;;;;;221461;1261;24284;-48
2022/08/23 12:46:12;;;;;;;28.80;4.20;;;24.90;71.10;;;;;;221246;1263;24248;-47
2022/08/23 12:51:29;;;;;;;16.50;5.10;;;24.90;71.30;;;;;;221207;1262;24201;-48
2022/08/23 12:56:44;;;;;;;30.80;4.60;;;24.90;71.40;;;;;;221488;1262;25315;-48
2022/08/23 13:01:47;;;;;;;21.90;5.70;;;24.90;71.70;;;;;;221468;1261;24270;-49
2022/08/23 13:07:03;;;;;;;28.70;4.90;;;24.90;71.40;;;;;;221537;1265;22663;-49
2022/08/23 13:12:12;;;;;;;27.00;4.10;;;24.90;71.30;;;;;;221292;1261;22557;-49
2022/08/23 13:17:40;;;;;;;18.30;4.30;;;24.90;71.40;;;;;;221506;1262;22576;-49
2022/08/23 13:23:00;;;;;;;17.60;3.90;;;24.90;71.30;;;;;;221575;1262;22541;-47
2022/08/23 13:28:25;;;;;;;19.70;4.20;;;24.90;71.40;;;;;;221504;1265;25368;-52
2022/08/23 13:33:36;;;;;;;17.70;4.10;;;24.90;71.50;;;;;;221461;1262;22568;-53
2022/08/23 13:38:44;;;;;;;16.40;3.80;;;24.90;71.80;;;;;;221443;1262;25447;-49
2022/08/23 13:43:49;;;;;;;18.20;4.30;;;24.90;72.10;;;;;;221340;1265;23902;-48
2022/08/23 13:48:52;;;;;;;19.20;4.70;;;24.90;72.50;;;;;;221047;1262;24602;-51
2022/08/23 13:53:58;;;;;;;15.50;4.80;;;25.00;73.10;;;;;;221293;1265;22570;-45
2022/08/23 13:59:16;;;;;;;17.60;6.20;;;25.00;74.70;;;;;;221214;1265;25444;-46
2022/08/23 14:04:19;;;;;;;14.90;5.10;;;25.00;75.70;;;;;;221627;1264;24336;-47
2022/08/23 14:09:21;;;;;;;14.00;4.50;;;25.10;76.40;;;;;;221593;1261;24280;-50
2022/08/23 14:14:24;;;;;;;13.60;4.90;;;25.30;75.10;;;;;;221317;1265;27303;-45
2022/08/23 14:19:26;;;;;;;13.80;4.20;;;25.40;75.70;;;;;;221272;1265;24567;-49
2022/08/23 14:24:49;;;;;;;11.10;4.10;;;25.40;78.30;;;;;;221413;1262;23907;-49
2022/08/23 14:29:52;;;;;;;10.70;4.10;;;25.30;79.70;;;;;;221659;1262;22538;-53
2022/08/23 14:34:56;;;;;;;7.80;3.90;;;25.30;80.50;;;;;;221528;1262;22552;-48
2022/08/23 14:39:59;;;;;;;7.70;4.00;;;25.30;79.90;;;;;;221553;1262;25368;-45
2022/08/23 14:45:03;;;;;;;9.30;3.90;;;25.30;79.00;;;;;;221234;1262;24199;-51
2022/08/23 14:50:09;;;;;;;9.00;3.70;;;25.30;79.00;;;;;;221202;1265;22990;-46
2022/08/23 14:55:15;;;;;;;8.40;3.80;;;25.30;78.70;;;;;;221002;1265;22556;-47
2022/08/23 15:00:17;;;;;;;9.20;4.40;;;25.30;78.20;;;;;;222059;1262;22532;-48
2022/08/23 15:05:20;;;;;;;11.40;3.50;;;25.30;77.80;;;;;;220938;1262;24213;-48
2022/08/23 15:10:23;;;;;;;13.00;4.20;;;25.30;77.60;;;;;;221047;1265;22695;-49
2022/08/23 15:15:46;;;;;;;11.70;4.10;;;25.30;77.30;;;;;;221286;1265;25245;-48
2022/08/23 15:20:52;;;;;;;7.60;4.50;;;25.30;77.60;;;;;;221369;1263;22736;-50
2022/08/23 15:25:54;;;;;;;8.90;4.90;;;25.20;76.90;;;;;;221472;1262;25352;-49
2022/08/23 15:30:59;;;;;;;12.30;4.50;;;25.20;76.80;;;;;;221222;1263;23901;-47
2022/08/23 15:36:02;;;;;;;9.60;4.10;;;25.20;77.00;;;;;;221286;1262;22550;-51
2022/08/23 15:41:05;;;;;;;10.80;4.60;;;25.20;76.60;;;;;;221217;1262;22687;-47
2022/08/23 15:46:17;;;;;;;14.20;5.10;;;25.20;76.90;;;;;;221135;1262;25763;-50
2022/08/23 15:51:23;;;;;;;13.20;5.10;;;25.20;77.00;;;;;;221405;1262;22541;-51
2022/08/23 15:56:32;;;;;;;15.40;5.00;;;25.20;75.80;;;;;;221589;1261;23156;-50
2022/08/23 16:01:39;;;;;;;12.00;5.10;;;25.20;74.90;;;;;;221507;1262;24050;-50
2022/08/23 16:06:43;;;;;;;15.90;5.40;;;25.20;74.50;;;;;;221303;1262;23059;-50
2022/08/23 16:11:47;;;;;;;15.20;5.10;;;25.20;74.90;;;;;;220983;1262;24205;-52
2022/08/23 16:16:51;;;;;;;11.60;5.00;;;25.10;74.70;;;;;;221371;1262;24713;-53
2022/08/23 16:22:02;;;;;;;11.50;5.50;;;25.10;75.40;;;;;;221585;1263;24408;-50
2022/08/23 16:27:06;;;;;;;12.20;5.40;;;25.20;74.80;;;;;;221094;1262;22537;-50
2022/08/23 16:32:12;;;;;;;10.10;4.90;;;25.20;75.20;;;;;;221135;1262;25360;-48
2022/08/23 16:37:19;;;;;;;15.60;6.20;;;25.20;75.70;;;;;;221277;1262;22574;-53
2022/08/23 16:42:26;;;;;;;18.80;5.70;;;25.30;77.60;;;;;;221017;1262;23052;-52
2022/08/23 16:47:35;;;;;;;14.70;6.10;;;25.30;77.90;;;;;;221201;1262;26580;-50
2022/08/23 16:52:38;;;;;;;14.80;6.50;;;25.30;79.80;;;;;;221094;1262;23052;-51
2022/08/23 16:57:41;;;;;;;15.40;6.40;;;25.40;80.90;;;;;;219472;1265;2357333;-50
2022/08/23 17:02:43;;;;;;;20.00;6.60;;;25.40;81.80;;;;;;221409;1262;24233;-49
2022/08/23 17:07:52;;;;;;;12.10;6.60;;;25.50;82.20;;;;;;221171;1262;24215;-50
2022/08/23 17:12:56;;;;;;;8.90;5.90;;;25.50;82.20;;;;;;221258;1262;22537;-46
2022/08/23 17:18:02;;;;;;;9.60;6.30;;;25.40;81.50;;;;;;221271;1261;22784;-52
2022/08/23 17:23:10;;;;;;;10.70;6.60;;;25.40;81.40;;;;;;221361;1263;22832;-54
2022/08/23 17:28:14;;;;;;;8.60;5.90;;;25.40;80.90;;;;;;221228;1262;24292;-48
2022/08/23 17:33:16;;;;;;;12.60;6.40;;;25.40;80.20;;;;;;221429;1261;25253;-50
2022/08/23 17:38:19;;;;;;;12.90;6.10;;;25.40;79.00;;;;;;221409;1262;25216;-54
2022/08/23 17:43:35;;;;;;;10.30;5.40;;;25.40;78.40;;;;;;221271;1265;22563;-54
2022/08/23 17:48:38;;;;;;;8.10;5.50;;;25.30;78.10;;;;;;221138;1262;24935;-52
2022/08/23 17:53:43;;;;;;;9.80;5.40;;;25.30;78.30;;;;;;220929;1262;25298;-47
2022/08/23 17:58:49;;;;;;;11.10;5.50;;;25.30;77.60;;;;;;220871;1262;22543;-52
2022/08/23 18:03:52;;;;;;;11.90;6.00;;;25.40;77.40;;;;;;221184;1265;22563;-49
2022/08/23 18:08:55;;;;;;;13.00;5.90;;;25.40;77.30;;;;;;221418;1262;24290;-48
2022/08/23 18:14:04;;;;;;;10.80;5.50;;;25.40;76.80;;;;;;220603;1262;22746;-47
2022/08/23 18:19:12;;;;;;;11.90;5.80;;;25.40;76.80;;;;;;221206;1263;22638;-53
2022/08/23 18:24:20;;;;;;;15.90;5.70;;;25.30;76.80;;;;;;221378;1262;24237;-52
2022/08/23 18:29:23;;;;;;;12.00;5.40;;;25.40;76.70;;;;;;221145;1265;22779;-50
2022/08/23 18:34:25;;;;;;;11.80;6.00;;;25.30;76.70;;;;;;221193;1265;24295;-51
2022/08/23 18:39:28;;;;;;;8.70;5.70;;;25.30;76.20;;;;;;221343;1265;22567;-53
2022/08/23 18:44:34;;;;;;;14.30;5.90;;;25.30;76.10;;;;;;221494;1262;24241;-53
2022/08/23 18:49:42;;;;;;;11.40;5.70;;;25.40;75.80;;;;;;221448;1261;25254;-55
2022/08/23 18:54:47;;;;;;;13.40;5.50;;;25.30;77.10;;;;;;221624;1261;22752;-56
2022/08/23 18:59:52;;;;;;;10.50;6.10;;;25.40;75.80;;;;;;221592;1262;24277;-54
2022/08/23 19:04:55;;;;;;;13.20;5.80;;;25.40;77.20;;;;;;221236;1265;25235;-53
2022/08/23 19:10:00;;;;;;;12.70;6.80;;;25.40;75.70;;;;;;221465;1262;22556;-52
2022/08/23 19:15:03;;;;;;;8.40;5.10;;;25.40;77.40;;;;;;221375;1262;22694;-54
2022/08/23 19:20:07;;;;;;;20.10;6.00;;;25.40;75.80;;;;;;221088;1265;26547;-53
2022/08/23 19:25:11;;;;;;;12.00;5.70;;;25.40;74.90;;;;;;221848;1262;25248;-53
2022/08/23 19:30:16;;;;;;;8.80;5.70;;;25.40;75.60;;;;;;221032;1265;22546;-56
2022/08/23 19:35:19;;;;;;;14.40;6.20;;;25.40;75.70;;;;;;220790;1264;24269;-54
2022/08/23 19:40:23;;;;;;;16.30;6.00;;;25.40;75.60;;;;;;221229;1262;22588;-52
2022/08/23 19:45:29;;;;;;;15.30;6.60;;;25.40;75.90;;;;;;221072;1263;24589;-51
2022/08/23 19:50:39;;;;;;;19.60;6.80;;;25.30;77.20;;;;;;220899;1262;22538;-51
2022/08/23 19:55:46;;;;;;;11.40;7.30;;;25.30;78.10;;;;;;221542;1261;25321;-55
2022/08/23 20:00:51;;;;;;;11.90;6.20;;;25.40;77.40;;;;;;221587;1261;22547;-54
2022/08/23 20:05:54;;;;;;;11.20;5.50;;;25.40;77.50;;;;;;221314;1262;24284;-55
2022/08/23 20:10:57;;;;;;;9.60;5.50;;;25.40;76.80;;;;;;221264;1262;22522;-54
2022/08/23 20:16:00;;;;;;;11.90;5.60;;;25.40;76.20;;;;;;221445;1261;25554;-53
2022/08/23 20:21:06;;;;;;;11.20;5.80;;;25.30;76.70;;;;;;221070;1262;22714;-55
2022/08/23 20:26:13;;;;;;;9.50;5.70;;;25.30;75.90;;;;;;221197;1265;25432;-54
2022/08/23 20:31:25;;;;;;;20.50;6.50;;;25.30;76.30;;;;;;220922;1265;26128;-52
2022/08/23 20:36:39;;;;;;;10.60;6.00;;;25.30;76.70;;;;;;221095;1265;25168;-55
2022/08/23 20:41:55;;;;;;;10.90;6.00;;;25.30;76.50;;;;;;221217;1262;24211;-56
2022/08/23 20:47:24;;;;;;;11.80;6.20;;;25.30;75.80;;;;;;221240;1265;22551;-54
2022/08/23 20:52:30;;;;;;;10.50;6.20;;;25.40;75.90;;;;;;220907;1265;22708;-52
2022/08/23 20:57:37;;;;;;;8.90;6.10;;;25.40;76.00;;;;;;221090;1265;22649;-55
2022/08/23 21:02:46;;;;;;;9.50;6.30;;;25.40;76.20;;;;;;221176;1265;24205;-53
2022/08/23 21:07:56;;;;;;;10.70;6.40;;;25.40;75.70;;;;;;221099;1265;24405;-55
2022/08/23 21:12:59;;;;;;;9.70;6.50;;;25.40;75.90;;;;;;220848;1262;24400;-53
2022/08/23 21:18:13;;;;;;;11.10;6.80;;;25.50;75.80;;;;;;221202;1262;25310;-56
2022/08/23 21:23:23;;;;;;;9.30;6.80;;;25.40;75.60;;;;;;221274;1262;23146;-53
2022/08/23 21:28:36;;;;;;;11.00;6.40;;;25.40;75.90;;;;;;221534;1262;22687;-55
2022/08/23 21:33:40;;;;;;;10.10;6.90;;;25.40;75.70;;;;;;221401;1262;24354;-51
2022/08/23 21:38:46;;;;;;;8.50;7.10;;;25.40;75.90;;;;;;221549;1262;22539;-56
2022/08/23 21:43:52;;;;;;;10.50;7.10;;;25.50;76.00;;;;;;221442;1262;25371;-52
2022/08/23 21:48:55;;;;;;;12.50;7.40;;;25.50;76.50;;;;;;221582;1262;26495;-54
2022/08/23 21:54:08;;;;;;;12.80;7.50;;;25.50;75.80;;;;;;221350;1265;23933;-55
2022/08/23 21:59:28;;;;;;;10.70;7.80;;;25.50;76.50;;;;;;221292;1262;22558;-54
2022/08/23 22:04:37;;;;;;;12.30;8.30;;;25.60;76.10;;;;;;221308;1262;24369;-55
2022/08/23 22:09:51;;;;;;;11.20;8.40;;;25.70;76.60;;;;;;221179;1262;24443;-54
2022/08/23 22:14:54;;;;;;;14.40;7.50;;;25.80;75.70;;;;;;221317;1262;23152;-53
2022/08/23 22:19:57;;;;;;;11.40;7.70;;;25.80;75.40;;;;;;221019;1262;24227;-55
2022/08/23 22:25:01;;;;;;;9.90;7.90;;;25.80;75.20;;;;;;220945;1262;22557;-53
2022/08/23 22:30:04;;;;;;;9.60;6.90;;;25.80;75.10;;;;;;221440;1265;25480;-54
2022/08/23 22:35:10;;;;;;;12.30;7.60;;;25.70;75.10;;;;;;221319;1265;25360;-55
2022/08/23 22:40:12;;;;;;;9.30;6.90;;;25.60;75.00;;;;;;220909;1262;22548;-55
2022/08/23 22:45:15;;;;;;;12.40;8.40;;;25.60;75.10;;;;;;221261;1262;22989;-54
2022/08/23 22:50:18;;;;;;;8.50;7.10;;;25.60;75.20;;;;;;221436;1262;24160;-53
2022/08/23 22:55:20;;;;;;;12.30;7.70;;;25.60;75.60;;;;;;221384;1262;25237;-56
2022/08/23 23:00:22;;;;;;;10.30;7.90;;;25.50;75.00;;;;;;221267;1262;24054;-55
2022/08/23 23:05:25;;;;;;;12.20;8.10;;;25.50;75.30;;;;;;221189;1262;26489;-53
2022/08/23 23:10:28;;;;;;;17.40;8.20;;;25.50;75.60;;;;;;221347;1262;24411;-55
2022/08/23 23:15:31;;;;;;;11.90;8.90;;;25.50;75.10;;;;;;221678;1262;25290;-54
2022/08/23 23:20:37;;;;;;;16.20;8.50;;;25.60;75.40;;;;;;221274;1262;24250;-54
2022/08/23 23:25:42;;;;;;;12.10;8.20;;;25.60;75.30;;;;;;221244;1262;25350;-54
2022/08/23 23:30:46;;;;;;;11.10;8.50;;;25.50;75.10;;;;;;221263;1262;25326;-54
2022/08/23 23:35:50;;;;;;;14.00;8.50;;;25.50;75.10;;;;;;221321;1262;22566;-54
2022/08/23 23:40:52;;;;;;;14.70;8.80;;;25.50;74.80;;;;;;221572;1262;22570;-54
2022/08/23 23:45:55;;;;;;;12.30;8.80;;;25.40;74.80;;;;;;221478;1262;25339;-52
2022/08/23 23:50:57;;;;;;;13.80;8.60;;;25.50;74.50;;;;;;221425;1262;25769;-55
2022/08/23 23:56:00;;;;;;;12.00;8.60;;;25.40;74.80;;;;;;221151;1262;24251;-52
